Alloy, WV

6:06 PM EDT on September 17, 2014 (GMT -0400)
KWVGLENF2 | Change Station
CLOSE
Current Station
Personal Weather Station
Location: Glen Ferris, WV
Elevation: 676 ft
Nearby Weather Stations

Elev 676 ft 38.15 °N, 81.22 °W | Updated 3 minutes ago

Partly Cloudy
Partly Cloudy
69.4 °F
Feels Like 69.4 °F
N
0.0
Wind Variable Wind from WNW
Gusts 0.0 mph

Today
High -- | Low -- °F
--% Chance of Precip.
Yesterday
High -- | Low -- °F
Precip. -- in
7:08 AM 7:30 PM
Waning Crescent, 33% visible
Pressure 29.96 in
Visibility 10.0 miles
Clouds Mostly Cloudy 3400 ft
Dew Point 62 °F
Humidity 76%
Rainfall 0.00 in
Snow Depth Not available.
UV 1 out of 12
Pollen 3.90 out of 12
Air Quality Not available.
Flu Activity Not available.
METAR KCRW 172154Z 32003KT 10SM BKN034 21/13 A2997 RMK AO2 SLP143 T02110133

More Conditions Fewer Conditions

Pressure 29.96 in
Visibility 10.0 miles
Clouds Mostly Cloudy 3400 ft
Dew Point 62 °F
Humidity 76%
Rainfall 0.00 in
Snow Depth Not available.
UV 1 out of 12
Pollen 3.90 out of 12
Air Quality Not available.
Flu Activity Not available.
METAR KCRW 172154Z 32003KT 10SM BKN034 21/13 A2997 RMK AO2 SLP143 T02110133

More Conditions Fewer Conditions

10-Day Weather Forecast

Almanac

Astronomy

Sep. 17, 2014 Rise Set
Actual Time 7:08 AM EDT 7:30 PM EDT
Civil Twilight 6:42 AM EDT 7:56 PM EDT
Nautical Twilight 6:11 AM EDT 8:27 PM EDT
Astronomical Twilight 5:39 AM EDT 8:59 PM EDT
Moon 1:11 AM EDT 3:35 PM EDT
Length of Visible Light 13h 14m
Length of Day
12h 21m
Tomorrow will be 2m 26s shorter.
Waning Crescent, 33% of the Moon is Illuminated
Today
Waning Crescent
Sep 24
New
Oct 1
First Quarter
Oct 8
Full
Oct 15
Last Quarter

Today's Extremes

State Highs State Lows

Community

WunderPhotos

Upload Photos

1,754,170 photos uploaded!

Nearby

Snow Depth

Station Depth Elevation
No new snow has been reported.

Earthquake Activity

City Distance Mag. Time & Date
No recent earthquake activity has been reported nearby.
Minimum magnitude displayed is 2.5.

Coastal Water Temperatures

Place Temperature
No Stations Reporting

Nearby Weather Stations